Time;durP1;ratioP1;P1;durP2;ratioP2;P2;SDS_P1;SDS_P2;PMS_P1;PMS_P2;Temp;Humidity;BMP_temperature;BMP_pressure;BME280_temperature;BME280_humidity;BME280_pressure;Samples;Min_cycle;Max_cycle;Signal;HPM_P1;HPM_P2
2023/05/09 00:01:14;;;;;;;2.57;1.77;;;;;;;;;;5042138;27;87038;-49
2023/05/09 00:03:44;;;;;;;2.90;1.87;;;;;;;;;;5043466;27;89226;-49
2023/05/09 00:06:14;;;;;;;1.83;1.40;;;;;;;;;;5052127;27;88907;-49
2023/05/09 00:08:42;;;;;;;1.57;1.20;;;;;;;;;;5042541;27;87021;-49
2023/05/09 00:11:10;;;;;;;2.53;1.70;;;;;;;;;;5042020;27;86986;-49
2023/05/09 00:13:40;;;;;;;4.13;2.07;;;;;;;;;;5042849;27;87074;-49
2023/05/09 00:16:09;;;;;;;2.53;1.50;;;;;;;;;;5061579;27;88876;-49
2023/05/09 00:18:41;;;;;;;2.97;1.70;;;;;;;;;;5058149;27;87027;-49
2023/05/09 00:21:10;;;;;;;1.60;1.50;;;;;;;;;;5042269;27;87023;-49
2023/05/09 00:23:39;;;;;;;2.40;1.70;;;;;;;;;;5041428;27;87897;-49
2023/05/09 00:26:08;;;;;;;2.43;1.47;;;;;;;;;;5049887;27;89837;-49
2023/05/09 00:28:36;;;;;;;3.07;1.60;;;;;;;;;;5045210;27;86911;-49
2023/05/09 00:31:05;;;;;;;2.87;1.57;;;;;;;;;;5050802;27;87206;-49
2023/05/09 00:33:33;;;;;;;5.60;2.00;;;;;;;;;;5065676;27;88281;-49
2023/05/09 00:36:01;;;;;;;2.00;1.70;;;;;;;;;;5074732;27;88878;-49
2023/05/09 00:38:31;;;;;;;2.27;1.30;;;;;;;;;;5064318;27;87143;-49
2023/05/09 00:40:59;;;;;;;9.40;1.80;;;;;;;;;;5046250;27;86250;-49
2023/05/09 00:43:27;;;;;;;2.23;1.50;;;;;;;;;;5045362;27;89280;-48
2023/05/09 00:45:56;;;;;;;3.87;2.50;;;;;;;;;;5050944;27;88985;-49
2023/05/09 00:48:24;;;;;;;3.27;2.03;;;;;;;;;;5059516;27;87956;-49
2023/05/09 00:50:52;;;;;;;2.87;1.13;;;;;;;;;;5060190;27;87091;-49
2023/05/09 00:53:21;;;;;;;1.77;1.30;;;;;;;;;;5044957;28;88033;-49
2023/05/09 00:55:50;;;;;;;1.50;1.40;;;;;;;;;;5045332;27;88813;-49
2023/05/09 00:58:19;;;;;;;2.53;1.23;;;;;;;;;;5045138;27;87054;-49
2023/05/09 01:00:47;;;;;;;2.07;1.40;;;;;;;;;;5048726;27;87028;-49
2023/05/09 01:03:15;;;;;;;1.80;1.57;;;;;;;;;;5065007;27;89323;-48
2023/05/09 01:05:45;;;;;;;2.67;1.60;;;;;;;;;;5055925;27;87857;-49
2023/05/09 01:08:14;;;;;;;2.20;1.40;;;;;;;;;;5045066;27;87060;-49
2023/05/09 01:10:44;;;;;;;2.57;1.67;;;;;;;;;;5045093;27;86947;-49
2023/05/09 01:13:16;;;;;;;3.70;1.73;;;;;;;;;;5043962;27;88844;-49
2023/05/09 01:15:46;;;;;;;1.63;1.13;;;;;;;;;;5044641;27;88909;-49
2023/05/09 01:18:16;;;;;;;2.60;1.40;;;;;;;;;;5044491;27;87067;-49
2023/05/09 01:20:45;;;;;;;1.53;1.10;;;;;;;;;;5045636;27;87019;-49
2023/05/09 01:23:20;;;;;;;2.27;1.50;;;;;;;;;;5057967;27;89123;-49
2023/05/09 01:25:55;;;;;;;2.40;1.47;;;;;;;;;;5064716;27;88685;-49
2023/05/09 01:28:35;;;;;;;2.43;1.77;;;;;;;;;;5044437;28;87000;-49
2023/05/09 01:31:05;;;;;;;3.37;1.90;;;;;;;;;;5051008;27;86506;-49
2023/05/09 01:33:33;;;;;;;3.50;1.80;;;;;;;;;;5063915;27;89452;-49
2023/05/09 01:36:04;;;;;;;2.10;1.47;;;;;;;;;;5063721;27;88827;-49
2023/05/09 01:38:33;;;;;;;2.30;1.20;;;;;;;;;;5061941;27;88042;-49
2023/05/09 01:41:03;;;;;;;3.90;1.70;;;;;;;;;;5063504;27;87155;-49
2023/05/09 01:43:32;;;;;;;2.63;1.30;;;;;;;;;;5062322;27;87850;-49
2023/05/09 01:46:00;;;;;;;2.10;1.33;;;;;;;;;;5044839;27;89082;-49
2023/05/09 01:48:30;;;;;;;4.63;1.67;;;;;;;;;;5062636;27;86993;-49
2023/05/09 01:50:58;;;;;;;1.23;1.03;;;;;;;;;;5063564;27;87009;-49
2023/05/09 01:53:26;;;;;;;2.30;1.27;;;;;;;;;;5062697;27;89251;-49
2023/05/09 01:55:55;;;;;;;2.67;1.60;;;;;;;;;;5063211;27;88927;-49
2023/05/09 01:58:23;;;;;;;3.63;1.70;;;;;;;;;;5063387;27;86810;-49
2023/05/09 02:00:51;;;;;;;2.73;1.47;;;;;;;;;;5062818;27;86994;-49
2023/05/09 02:03:20;;;;;;;2.87;1.50;;;;;;;;;;5061826;27;90087;-49
2023/05/09 02:05:49;;;;;;;1.70;1.27;;;;;;;;;;5062574;27;87232;-49
2023/05/09 02:08:20;;;;;;;2.83;1.37;;;;;;;;;;5062524;27;86906;-49
2023/05/09 02:10:49;;;;;;;3.97;2.20;;;;;;;;;;5058714;27;86866;-49
2023/05/09 02:13:17;;;;;;;2.47;1.70;;;;;;;;;;5061187;27;89125;-50
2023/05/09 02:15:45;;;;;;;2.00;1.20;;;;;;;;;;5061615;27;89210;-49
2023/05/09 02:18:14;;;;;;;1.20;1.10;;;;;;;;;;5061922;27;87146;-49
2023/05/09 02:20:42;;;;;;;1.50;1.40;;;;;;;;;;5063004;27;86134;-50
2023/05/09 02:23:11;;;;;;;2.57;1.67;;;;;;;;;;5062501;27;88924;-49
2023/05/09 02:25:40;;;;;;;2.27;1.40;;;;;;;;;;5062705;27;88875;-49
2023/05/09 02:28:08;;;;;;;3.27;1.40;;;;;;;;;;5062153;27;88038;-49
2023/05/09 02:30:37;;;;;;;2.63;1.30;;;;;;;;;;5062026;27;87594;-49
2023/05/09 02:33:06;;;;;;;2.20;1.40;;;;;;;;;;5060895;27;89226;-49
2023/05/09 02:35:35;;;;;;;2.10;1.63;;;;;;;;;;5061711;27;88763;-49
2023/05/09 02:38:03;;;;;;;4.33;1.60;;;;;;;;;;5020563;27;1176121;-49
2023/05/09 02:40:32;;;;;;;2.57;1.57;;;;;;;;;;5063560;27;86875;-49
2023/05/09 02:43:01;;;;;;;1.30;1.20;;;;;;;;;;5063876;27;87998;-49
2023/05/09 02:45:29;;;;;;;1.57;1.20;;;;;;;;;;5060589;27;88937;-49
2023/05/09 02:47:58;;;;;;;2.23;1.67;;;;;;;;;;5059906;27;88393;-49
2023/05/09 02:50:26;;;;;;;1.20;1.10;;;;;;;;;;5062692;27;86849;-49
2023/05/09 02:52:54;;;;;;;3.67;1.77;;;;;;;;;;5062513;27;90262;-49
2023/05/09 02:55:23;;;;;;;3.50;1.67;;;;;;;;;;5062394;27;89558;-49
2023/05/09 02:57:52;;;;;;;1.60;1.37;;;;;;;;;;5063741;27;87007;-49
2023/05/09 03:00:39;;;;;;;1.43;1.00;;;;;;;;;;5054085;27;86968;-49
2023/05/09 03:03:07;;;;;;;1.80;1.27;;;;;;;;;;5062536;27;88881;-49
2023/05/09 03:05:36;;;;;;;4.53;1.80;;;;;;;;;;5062385;27;88910;-49
2023/05/09 03:08:04;;;;;;;1.90;1.70;;;;;;;;;;5062831;27;87016;-49
2023/05/09 03:10:33;;;;;;;2.47;1.67;;;;;;;;;;5063293;27;86241;-49
2023/05/09 03:13:02;;;;;;;1.70;1.27;;;;;;;;;;5063170;27;88220;-49
2023/05/09 03:15:31;;;;;;;1.47;1.20;;;;;;;;;;5063078;27;88706;-49
2023/05/09 03:17:59;;;;;;;2.43;1.47;;;;;;;;;;5062331;27;89113;-49
2023/05/09 03:20:27;;;;;;;2.37;1.37;;;;;;;;;;5062457;27;87033;-49
2023/05/09 03:22:56;;;;;;;1.60;1.30;;;;;;;;;;5063158;27;89143;-49
2023/05/09 03:25:25;;;;;;;2.37;1.87;;;;;;;;;;5062264;27;88950;-49
2023/05/09 03:27:53;;;;;;;2.00;1.10;;;;;;;;;;5063146;27;86961;-49
2023/05/09 03:30:23;;;;;;;6.13;1.40;;;;;;;;;;5062041;27;87664;-49
2023/05/09 03:32:51;;;;;;;3.50;1.43;;;;;;;;;;5061868;27;88030;-49
2023/05/09 03:35:19;;;;;;;1.43;1.10;;;;;;;;;;5062897;27;88741;-49
2023/05/09 03:37:48;;;;;;;3.43;1.73;;;;;;;;;;5062677;27;86991;-49
2023/05/09 03:40:16;;;;;;;2.27;1.23;;;;;;;;;;5061766;27;87500;-49
2023/05/09 03:42:44;;;;;;;2.03;1.37;;;;;;;;;;5061802;27;90106;-49
2023/05/09 03:45:13;;;;;;;1.20;1.10;;;;;;;;;;5061895;27;88869;-49
2023/05/09 03:47:43;;;;;;;1.40;1.17;;;;;;;;;;5062632;27;86821;-49
2023/05/09 03:50:11;;;;;;;1.30;1.20;;;;;;;;;;5062254;27;87089;-51
2023/05/09 03:52:39;;;;;;;2.30;1.43;;;;;;;;;;5042464;28;88945;-49
2023/05/09 03:55:08;;;;;;;1.20;1.00;;;;;;;;;;5042209;27;87894;-49
2023/05/09 03:57:36;;;;;;;1.93;1.40;;;;;;;;;;5062229;27;86978;-49
2023/05/09 04:00:05;;;;;;;1.50;1.40;;;;;;;;;;5061823;27;86366;-50
2023/05/09 04:02:34;;;;;;;3.43;1.07;;;;;;;;;;5061715;27;88953;-50
2023/05/09 04:05:04;;;;;;;1.87;1.47;;;;;;;;;;5061415;27;88740;-50
2023/05/09 04:07:32;;;;;;;1.63;1.30;;;;;;;;;;5062168;27;87961;-50
2023/05/09 04:10:00;;;;;;;1.63;1.20;;;;;;;;;;5062232;27;86827;-51
2023/05/09 04:12:29;;;;;;;1.53;1.33;;;;;;;;;;5061667;27;86996;-50
2023/05/09 04:14:57;;;;;;;2.17;1.70;;;;;;;;;;5061763;27;88742;-51
2023/05/09 04:17:25;;;;;;;3.43;1.53;;;;;;;;;;5057326;27;86887;-50
2023/05/09 04:19:54;;;;;;;2.40;1.50;;;;;;;;;;5062171;27;87050;-50
2023/05/09 04:22:23;;;;;;;1.80;1.17;;;;;;;;;;5062060;27;88014;-50
2023/05/09 04:24:52;;;;;;;2.00;1.50;;;;;;;;;;5062451;27;87751;-50
2023/05/09 04:27:20;;;;;;;1.67;1.30;;;;;;;;;;5062033;27;86941;-50
2023/05/09 04:29:48;;;;;;;1.60;1.20;;;;;;;;;;5062223;27;87724;-50
2023/05/09 04:32:17;;;;;;;3.00;1.23;;;;;;;;;;5061032;27;90124;-50
2023/05/09 04:34:45;;;;;;;2.03;1.30;;;;;;;;;;5061844;27;89771;-50
2023/05/09 04:37:13;;;;;;;1.80;1.40;;;;;;;;;;5061664;27;86897;-50
2023/05/09 04:39:43;;;;;;;1.27;1.07;;;;;;;;;;5061726;27;86967;-50
2023/05/09 04:42:11;;;;;;;3.33;1.30;;;;;;;;;;5061138;27;88998;-50
2023/05/09 04:44:40;;;;;;;1.40;1.20;;;;;;;;;;5061281;27;87798;-50
2023/05/09 04:47:08;;;;;;;2.00;1.30;;;;;;;;;;5061309;27;87073;-50
2023/05/09 04:49:36;;;;;;;2.27;1.20;;;;;;;;;;5062241;27;86160;-50
2023/05/09 04:52:05;;;;;;;2.77;1.30;;;;;;;;;;5061511;27;87030;-50
2023/05/09 04:54:34;;;;;;;2.00;1.80;;;;;;;;;;5061779;27;88751;-51
2023/05/09 04:57:05;;;;;;;2.63;1.03;;;;;;;;;;5061132;27;89375;-50
2023/05/09 04:59:44;;;;;;;2.33;1.40;;;;;;;;;;5061695;27;87274;-50
2023/05/09 05:02:12;;;;;;;2.60;1.20;;;;;;;;;;5060132;27;88944;-50
2023/05/09 05:04:41;;;;;;;3.63;1.17;;;;;;;;;;5060778;27;88822;-50
2023/05/09 05:07:09;;;;;;;1.80;1.30;;;;;;;;;;5060261;27;87079;-50
2023/05/09 05:09:37;;;;;;;1.50;0.90;;;;;;;;;;5059912;27;86995;-50
2023/05/09 05:12:07;;;;;;;1.30;1.20;;;;;;;;;;5060423;27;89224;-50
2023/05/09 05:14:37;;;;;;;2.00;1.20;;;;;;;;;;5064786;27;86575;-48
2023/05/09 05:17:05;;;;;;;2.00;1.27;;;;;;;;;;5065327;27;86832;-50
2023/05/09 05:19:33;;;;;;;2.10;0.97;;;;;;;;;;5064345;27;86992;-50
2023/05/09 05:22:02;;;;;;;1.33;1.23;;;;;;;;;;5064131;27;88879;-50
2023/05/09 05:24:30;;;;;;;2.10;1.40;;;;;;;;;;5064115;27;89834;-50
2023/05/09 05:26:58;;;;;;;2.33;1.27;;;;;;;;;;5065058;27;86991;-50
2023/05/09 05:29:28;;;;;;;1.83;1.40;;;;;;;;;;5062296;27;87731;-50
2023/05/09 05:31:56;;;;;;;1.13;1.07;;;;;;;;;;5059076;27;88348;-50
2023/05/09 05:34:25;;;;;;;1.80;1.27;;;;;;;;;;5062800;27;88759;-49
2023/05/09 05:36:53;;;;;;;2.77;1.50;;;;;;;;;;5064728;27;87002;-57
2023/05/09 05:39:21;;;;;;;2.80;1.67;;;;;;;;;;5063733;27;86308;-56
2023/05/09 05:41:50;;;;;;;13.93;4.47;;;;;;;;;;5063950;27;88159;-54
2023/05/09 05:44:19;;;;;;;18.20;5.70;;;;;;;;;;5064427;27;88773;-54
2023/05/09 05:46:48;;;;;;;15.50;6.87;;;;;;;;;;5047841;27;88039;-55
2023/05/09 05:49:17;;;;;;;41.23;13.23;;;;;;;;;;5054963;27;87669;-54
2023/05/09 05:51:45;;;;;;;44.67;14.30;;;;;;;;;;5062555;27;89078;-53
2023/05/09 05:54:13;;;;;;;58.07;24.70;;;;;;;;;;5062559;27;88918;-55
2023/05/09 05:56:42;;;;;;;54.67;20.23;;;;;;;;;;5063479;27;87031;-55
2023/05/09 05:59:10;;;;;;;76.07;24.97;;;;;;;;;;5062164;27;87087;-55
2023/05/09 06:01:40;;;;;;;52.40;20.50;;;;;;;;;;5062781;27;88906;-55
2023/05/09 06:04:10;;;;;;;61.70;25.77;;;;;;;;;;5062928;27;88179;-55
2023/05/09 06:06:39;;;;;;;94.67;29.53;;;;;;;;;;5063324;27;86869;-57
2023/05/09 06:09:07;;;;;;;71.47;25.50;;;;;;;;;;5062454;27;87067;-55
2023/05/09 06:11:35;;;;;;;76.03;23.40;;;;;;;;;;5057082;27;89139;-55
2023/05/09 06:14:04;;;;;;;63.43;21.07;;;;;;;;;;5062317;27;89017;-56
2023/05/09 06:16:32;;;;;;;52.67;19.83;;;;;;;;;;5063258;27;87012;-55
2023/05/09 06:19:00;;;;;;;48.63;19.77;;;;;;;;;;5062251;27;88883;-53
2023/05/09 06:21:30;;;;;;;29.73;12.37;;;;;;;;;;5061865;27;89207;-53
2023/05/09 06:23:58;;;;;;;26.33;7.80;;;;;;;;;;5061521;27;89013;-53
2023/05/09 06:26:39;;;;;;;16.40;8.73;;;;;;;;;;5062119;27;87075;-53
2023/05/09 06:29:07;;;;;;;15.77;7.30;;;;;;;;;;5061686;27;86531;-53
2023/05/09 06:31:37;;;;;;;13.90;7.17;;;;;;;;;;5061048;27;89165;-53
2023/05/09 06:34:06;;;;;;;15.70;6.70;;;;;;;;;;5067756;27;88995;-53
2023/05/09 06:36:35;;;;;;;10.60;4.93;;;;;;;;;;5061152;27;89291;-53
2023/05/09 06:39:04;;;;;;;10.33;4.77;;;;;;;;;;5061994;27;87636;-53
2023/05/09 06:41:32;;;;;;;9.07;3.50;;;;;;;;;;5063332;27;87040;-53
2023/05/09 06:44:02;;;;;;;5.40;3.10;;;;;;;;;;5063307;27;87776;-53
2023/05/09 06:46:30;;;;;;;6.93;3.67;;;;;;;;;;5063761;27;86959;-53
2023/05/09 06:49:00;;;;;;;10.23;3.10;;;;;;;;;;5063671;27;87077;-53
2023/05/09 06:51:28;;;;;;;7.93;3.67;;;;;;;;;;5063673;27;89331;-53
2023/05/09 06:53:58;;;;;;;8.87;3.00;;;;;;;;;;5063857;27;88873;-53
2023/05/09 06:56:26;;;;;;;7.60;3.13;;;;;;;;;;5063569;27;86742;-53
2023/05/09 06:58:55;;;;;;;3.37;2.70;;;;;;;;;;5063031;27;87017;-53
2023/05/09 07:01:23;;;;;;;7.43;2.73;;;;;;;;;;5062740;27;90312;-53
2023/05/09 07:03:51;;;;;;;3.73;1.93;;;;;;;;;;5062683;27;88040;-53
2023/05/09 07:06:20;;;;;;;4.10;2.47;;;;;;;;;;5063033;27;87003;-53
2023/05/09 07:08:48;;;;;;;5.00;2.13;;;;;;;;;;5062871;27;87043;-53
2023/05/09 07:11:18;;;;;;;2.97;2.27;;;;;;;;;;5062728;27;88128;-53
2023/05/09 07:13:46;;;;;;;6.17;1.93;;;;;;;;;;5062554;27;87964;-53
2023/05/09 07:16:14;;;;;;;10.20;2.40;;;;;;;;;;5062892;27;86866;-53
2023/05/09 07:18:43;;;;;;;5.33;1.70;;;;;;;;;;5063269;27;86290;-53
2023/05/09 07:21:11;;;;;;;3.67;1.90;;;;;;;;;;5063232;27;89175;-53
2023/05/09 07:23:39;;;;;;;3.03;2.17;;;;;;;;;;5062709;27;88995;-53
2023/05/09 07:26:07;;;;;;;5.90;2.30;;;;;;;;;;5062877;27;87867;-53
2023/05/09 07:28:37;;;;;;;6.90;1.97;;;;;;;;;;5062849;27;86939;-53
2023/05/09 07:31:06;;;;;;;3.77;1.63;;;;;;;;;;5062283;27;89171;-53
2023/05/09 07:33:34;;;;;;;2.40;1.40;;;;;;;;;;5062234;27;88128;-53
2023/05/09 07:36:02;;;;;;;2.17;1.60;;;;;;;;;;5058101;27;87486;-53
2023/05/09 07:38:31;;;;;;;2.23;1.43;;;;;;;;;;5062596;27;88253;-53
2023/05/09 07:41:00;;;;;;;2.13;1.63;;;;;;;;;;5062627;27;89189;-53
2023/05/09 07:43:28;;;;;;;2.63;2.17;;;;;;;;;;5062346;27;89174;-53
2023/05/09 07:45:58;;;;;;;4.47;1.60;;;;;;;;;;5060886;27;89691;-53
2023/05/09 07:48:26;;;;;;;1.83;1.13;;;;;;;;;;5058640;27;87107;-53
2023/05/09 07:50:54;;;;;;;5.07;2.13;;;;;;;;;;5060047;27;89905;-53
2023/05/09 07:53:23;;;;;;;5.00;1.50;;;;;;;;;;5060759;27;88656;-53
2023/05/09 07:55:51;;;;;;;2.27;1.30;;;;;;;;;;5061856;27;87163;-53
2023/05/09 07:58:20;;;;;;;1.77;1.30;;;;;;;;;;5060728;27;86890;-53
2023/05/09 08:00:48;;;;;;;5.90;1.43;;;;;;;;;;5053510;27;87961;-53
2023/05/09 08:03:19;;;;;;;1.27;1.13;;;;;;;;;;5060304;27;87797;-53
2023/05/09 08:05:48;;;;;;;2.40;1.27;;;;;;;;;;5058723;27;86909;-53
2023/05/09 08:08:16;;;;;;;2.50;1.63;;;;;;;;;;5061837;27;86016;-53
2023/05/09 08:10:44;;;;;;;3.27;1.00;;;;;;;;;;5062165;27;88092;-53
2023/05/09 08:13:12;;;;;;;1.37;1.00;;;;;;;;;;5061212;27;88892;-53
2023/05/09 08:15:41;;;;;;;1.30;0.97;;;;;;;;;;5061418;27;88035;-53
2023/05/09 08:18:09;;;;;;;1.93;1.10;;;;;;;;;;5061447;27;87069;-53
2023/05/09 08:20:39;;;;;;;0.93;0.90;;;;;;;;;;5062426;27;89205;-53
2023/05/09 08:23:07;;;;;;;0.83;0.83;;;;;;;;;;5060410;27;87665;-53
2023/05/09 08:25:36;;;;;;;1.53;1.23;;;;;;;;;;5062326;27;87704;-53
2023/05/09 08:28:04;;;;;;;0.93;0.93;;;;;;;;;;5057734;27;87038;-58
2023/05/09 08:30:33;;;;;;;2.53;1.00;;;;;;;;;;5061739;27;88423;-53
2023/05/09 08:33:01;;;;;;;2.13;1.10;;;;;;;;;;5061682;27;88902;-53
2023/05/09 08:35:29;;;;;;;1.57;0.80;;;;;;;;;;5061654;27;87022;-53
2023/05/09 08:37:59;;;;;;;1.87;1.20;;;;;;;;;;5060782;27;88312;-53
2023/05/09 08:40:27;;;;;;;1.57;0.80;;;;;;;;;;5060385;27;90117;-53
2023/05/09 08:42:56;;;;;;;1.10;1.00;;;;;;;;;;5061316;27;89931;-53
2023/05/09 08:45:26;;;;;;;0.93;0.83;;;;;;;;;;5062326;27;87078;-53
2023/05/09 08:47:54;;;;;;;2.50;1.10;;;;;;;;;;5063472;27;86967;-53
2023/05/09 08:50:23;;;;;;;1.37;1.10;;;;;;;;;;5064539;27;88410;-53
2023/05/09 08:52:52;;;;;;;1.97;1.20;;;;;;;;;;5064802;27;87808;-53
2023/05/09 08:55:21;;;;;;;1.03;0.90;;;;;;;;;;5065111;27;87038;-53
2023/05/09 08:57:50;;;;;;;1.77;1.33;;;;;;;;;;5065864;27;86233;-53
2023/05/09 09:00:19;;;;;;;2.47;0.87;;;;;;;;;;5065151;27;87013;-53
2023/05/09 09:02:48;;;;;;;1.53;0.90;;;;;;;;;;5062976;27;88704;-53
2023/05/09 09:05:17;;;;;;;3.53;1.20;;;;;;;;;;5064524;27;88384;-53
2023/05/09 09:08:07;;;;;;;2.10;1.07;;;;;;;;;;5065302;27;86948;-53
2023/05/09 09:10:36;;;;;;;1.83;1.20;;;;;;;;;;5064504;27;88890;-53
2023/05/09 09:13:05;;;;;;;2.27;0.93;;;;;;;;;;5064658;27;87193;-53
2023/05/09 09:15:35;;;;;;;0.97;0.60;;;;;;;;;;5064601;27;87074;-53
2023/05/09 09:18:06;;;;;;;0.90;0.73;;;;;;;;;;5064646;27;87070;-53
2023/05/09 09:20:35;;;;;;;0.50;0.50;;;;;;;;;;5064436;27;88952;-53
2023/05/09 09:23:04;;;;;;;1.10;1.00;;;;;;;;;;5065056;27;89007;-53
2023/05/09 09:25:32;;;;;;;0.70;0.70;;;;;;;;;;5064671;27;86973;-53
2023/05/09 09:28:02;;;;;;;1.77;1.33;;;;;;;;;;5063247;27;87427;-53
2023/05/09 09:30:30;;;;;;;0.77;0.60;;;;;;;;;;5062615;27;89996;-53
2023/05/09 09:32:59;;;;;;;2.10;1.00;;;;;;;;;;5064841;27;89891;-53
2023/05/09 09:35:27;;;;;;;0.93;0.77;;;;;;;;;;5064622;27;86702;-53
2023/05/09 09:37:58;;;;;;;2.30;1.20;;;;;;;;;;5063975;27;87400;-53
2023/05/09 09:40:27;;;;;;;1.47;0.83;;;;;;;;;;5064433;27;89251;-53
2023/05/09 09:42:55;;;;;;;0.80;0.60;;;;;;;;;;5064346;27;88774;-53
2023/05/09 09:45:26;;;;;;;4.07;0.90;;;;;;;;;;5064451;27;87796;-53
2023/05/09 09:47:54;;;;;;;0.60;0.60;;;;;;;;;;5064395;27;86208;-53
2023/05/09 09:50:24;;;;;;;1.97;0.90;;;;;;;;;;5064194;27;89176;-53
2023/05/09 09:52:52;;;;;;;1.13;0.80;;;;;;;;;;5063725;27;88911;-53
2023/05/09 09:55:21;;;;;;;1.17;0.90;;;;;;;;;;5058676;27;88578;-52
2023/05/09 09:57:50;;;;;;;1.33;0.80;;;;;;;;;;5064248;27;86996;-49
2023/05/09 10:00:19;;;;;;;0.50;0.50;;;;;;;;;;5063779;27;89152;-49
2023/05/09 10:02:49;;;;;;;4.00;1.20;;;;;;;;;;5064344;27;89089;-49
2023/05/09 10:05:24;;;;;;;1.20;0.80;;;;;;;;;;5064420;27;86958;-49
2023/05/09 10:07:54;;;;;;;0.70;0.70;;;;;;;;;;5063010;27;86830;-49
2023/05/09 10:10:23;;;;;;;0.83;0.73;;;;;;;;;;5063475;27;88952;-49
2023/05/09 10:12:51;;;;;;;1.33;0.80;;;;;;;;;;5063852;27;88877;-49
2023/05/09 10:15:20;;;;;;;0.77;0.77;;;;;;;;;;5063693;27;86702;-49
2023/05/09 10:17:50;;;;;;;1.23;1.13;;;;;;;;;;5059280;27;86919;-49
2023/05/09 10:20:19;;;;;;;1.27;1.10;;;;;;;;;;5062758;27;89037;-49
2023/05/09 10:22:47;;;;;;;0.83;0.73;;;;;;;;;;5062961;27;88802;-49
2023/05/09 10:25:18;;;;;;;1.50;0.70;;;;;;;;;;5063293;27;87025;-49
2023/05/09 10:27:46;;;;;;;0.90;0.90;;;;;;;;;;5062400;27;87105;-49
2023/05/09 10:30:15;;;;;;;1.07;0.87;;;;;;;;;;5062079;27;89183;-49
2023/05/09 10:32:46;;;;;;;2.10;1.03;;;;;;;;;;5063244;27;88537;-49
2023/05/09 10:35:17;;;;;;;1.20;0.67;;;;;;;;;;5059228;27;87017;-49
2023/05/09 10:37:45;;;;;;;0.83;0.83;;;;;;;;;;5051734;27;87780;-49
2023/05/09 10:40:14;;;;;;;1.73;1.27;;;;;;;;;;5062197;27;88392;-49
2023/05/09 10:42:43;;;;;;;1.77;1.03;;;;;;;;;;5063325;27;88431;-49
2023/05/09 10:45:12;;;;;;;0.90;0.60;;;;;;;;;;5063213;27;87907;-49
2023/05/09 10:47:41;;;;;;;2.17;0.90;;;;;;;;;;5062971;27;86947;-50
2023/05/09 10:50:09;;;;;;;3.00;1.00;;;;;;;;;;5062886;27;87959;-49
2023/05/09 10:52:53;;;;;;;0.60;0.60;;;;;;;;;;5063563;27;88782;-49
2023/05/09 10:55:23;;;;;;;1.33;0.90;;;;;;;;;;5062161;27;87084;-49
2023/05/09 10:57:53;;;;;;;1.77;0.67;;;;;;;;;;5062779;27;86987;-49
2023/05/09 11:00:25;;;;;;;0.60;0.60;;;;;;;;;;5062394;27;86970;-50
2023/05/09 11:03:06;;;;;;;0.50;0.50;;;;;;;;;;5061369;27;88847;-49
2023/05/09 11:05:39;;;;;;;0.80;0.80;;;;;;;;;;5061991;27;87006;-49
2023/05/09 11:08:20;;;;;;;0.87;0.80;;;;;;;;;;5063135;27;86975;-49
2023/05/09 11:10:50;;;;;;;2.60;0.90;;;;;;;;;;5061612;27;90126;-49
2023/05/09 11:13:22;;;;;;;1.00;0.70;;;;;;;;;;5054317;27;87623;-49
2023/05/09 11:15:51;;;;;;;1.30;1.20;;;;;;;;;;5042753;27;86712;-49
2023/05/09 11:18:19;;;;;;;0.97;0.80;;;;;;;;;;5042691;27;87078;-49
2023/05/09 11:20:50;;;;;;;1.40;1.20;;;;;;;;;;5042709;28;88140;-49
2023/05/09 11:23:18;;;;;;;4.00;1.00;;;;;;;;;;5042385;28;88704;-50
2023/05/09 11:25:47;;;;;;;1.00;0.90;;;;;;;;;;5042774;27;87018;-50
2023/05/09 11:28:28;;;;;;;1.20;1.10;;;;;;;;;;5043186;28;86163;-50
2023/05/09 11:31:08;;;;;;;1.23;0.93;;;;;;;;;;5048868;27;88072;-49
2023/05/09 11:33:37;;;;;;;0.77;0.77;;;;;;;;;;5079543;27;87744;-49
2023/05/09 11:36:26;;;;;;;1.03;1.00;;;;;;;;;;5082883;27;87985;-50
2023/05/09 11:39:05;;;;;;;0.97;0.80;;;;;;;;;;5083390;27;86986;-49
2023/05/09 11:41:38;;;;;;;0.60;0.60;;;;;;;;;;5083387;27;88043;-49
2023/05/09 11:44:14;;;;;;;1.07;0.60;;;;;;;;;;5082686;27;88867;-49
2023/05/09 11:46:43;;;;;;;1.40;0.60;;;;;;;;;;5074999;27;87014;-50
2023/05/09 11:49:11;;;;;;;1.30;0.90;;;;;;;;;;5042307;27;86834;-49
2023/05/09 11:51:40;;;;;;;3.13;0.90;;;;;;;;;;5042455;28;88090;-49
2023/05/09 11:54:10;;;;;;;0.97;0.90;;;;;;;;;;5042241;28;87634;-49
2023/05/09 11:56:39;;;;;;;0.60;0.60;;;;;;;;;;5042448;27;87008;-49
2023/05/09 11:59:07;;;;;;;2.07;0.70;;;;;;;;;;5041937;27;87096;-49
2023/05/09 12:01:37;;;;;;;0.60;0.60;;;;;;;;;;5040906;28;88824;-50
2023/05/09 12:04:06;;;;;;;0.67;0.67;;;;;;;;;;5041056;27;88759;-49
2023/05/09 12:06:36;;;;;;;1.73;1.00;;;;;;;;;;5040438;27;87069;-49
2023/05/09 12:09:05;;;;;;;0.70;0.60;;;;;;;;;;5040994;27;86999;-49
2023/05/09 12:11:35;;;;;;;0.60;0.60;;;;;;;;;;5041953;27;88006;-49
2023/05/09 12:14:04;;;;;;;0.67;0.63;;;;;;;;;;5042179;27;88880;-49
2023/05/09 12:16:32;;;;;;;0.70;0.67;;;;;;;;;;5042167;27;86957;-49
2023/05/09 12:19:03;;;;;;;1.40;0.93;;;;;;;;;;5042583;28;86300;-49
2023/05/09 12:21:32;;;;;;;0.70;0.70;;;;;;;;;;5044495;27;89283;-49
2023/05/09 12:24:00;;;;;;;0.87;0.87;;;;;;;;;;5060828;27;88832;-49
2023/05/09 12:26:29;;;;;;;1.87;0.87;;;;;;;;;;5061558;27;88079;-49
2023/05/09 12:28:57;;;;;;;2.37;0.73;;;;;;;;;;5064937;27;86972;-50
2023/05/09 12:31:25;;;;;;;1.40;0.70;;;;;;;;;;5063809;27;87946;-50
2023/05/09 12:33:54;;;;;;;0.60;0.60;;;;;;;;;;5065377;27;87781;-49
2023/05/09 12:36:23;;;;;;;0.77;0.73;;;;;;;;;;5065603;27;87985;-49
2023/05/09 12:38:55;;;;;;;0.93;0.90;;;;;;;;;;5060712;27;87127;-50
2023/05/09 12:41:23;;;;;;;0.70;0.70;;;;;;;;;;5065430;27;86806;-49
2023/05/09 12:43:54;;;;;;;1.27;0.70;;;;;;;;;;5065389;27;88407;-49
2023/05/09 12:46:23;;;;;;;0.97;0.60;;;;;;;;;;5065419;27;87009;-49
2023/05/09 12:48:51;;;;;;;0.70;0.63;;;;;;;;;;5065396;27;86950;-49
2023/05/09 12:51:20;;;;;;;0.67;0.50;;;;;;;;;;5064910;27;90024;-50
2023/05/09 12:53:50;;;;;;;1.10;0.80;;;;;;;;;;5064840;27;88683;-49
2023/05/09 12:56:18;;;;;;;0.73;0.73;;;;;;;;;;5065090;27;87069;-49
2023/05/09 12:58:51;;;;;;;0.77;0.70;;;;;;;;;;5065123;27;86921;-50
2023/05/09 13:01:19;;;;;;;0.63;0.63;;;;;;;;;;5064907;27;88271;-49
2023/05/09 13:03:51;;;;;;;0.93;0.80;;;;;;;;;;5065430;27;88813;-50
2023/05/09 13:06:20;;;;;;;1.30;0.80;;;;;;;;;;5065090;27;87023;-50
2023/05/09 13:09:00;;;;;;;0.77;0.70;;;;;;;;;;5065733;27;86229;-50
2023/05/09 13:11:28;;;;;;;0.93;0.83;;;;;;;;;;5064871;27;89181;-49
2023/05/09 13:13:56;;;;;;;1.03;0.77;;;;;;;;;;5061557;27;88858;-49
2023/05/09 13:16:25;;;;;;;0.70;0.70;;;;;;;;;;5043977;27;87837;-50
2023/05/09 13:18:54;;;;;;;0.67;0.67;;;;;;;;;;5043903;27;87098;-49
2023/05/09 13:21:22;;;;;;;1.63;0.50;;;;;;;;;;5044526;28;89322;-49
2023/05/09 13:23:50;;;;;;;0.50;0.50;;;;;;;;;;5058576;27;88880;-50
2023/05/09 13:26:21;;;;;;;0.60;0.60;;;;;;;;;;5064712;27;86877;-49
2023/05/09 13:28:49;;;;;;;0.50;0.50;;;;;;;;;;5064929;27;86913;-50
2023/05/09 13:31:18;;;;;;;0.93;0.83;;;;;;;;;;5064471;27;89197;-50
2023/05/09 13:33:47;;;;;;;1.07;0.60;;;;;;;;;;5064661;27;88967;-49
2023/05/09 13:36:18;;;;;;;0.63;0.63;;;;;;;;;;5064829;27;87086;-49
2023/05/09 13:38:47;;;;;;;0.80;0.70;;;;;;;;;;5064129;27;87010;-50
2023/05/09 13:41:19;;;;;;;0.70;0.70;;;;;;;;;;5064140;27;88720;-50
2023/05/09 13:43:49;;;;;;;0.73;0.60;;;;;;;;;;5064029;27;88789;-49
2023/05/09 13:46:17;;;;;;;0.53;0.53;;;;;;;;;;5060423;27;87079;-50
2023/05/09 13:48:46;;;;;;;0.50;0.50;;;;;;;;;;5063043;27;86962;-50
2023/05/09 13:51:14;;;;;;;0.53;0.53;;;;;;;;;;5062175;27;89135;-51
2023/05/09 13:53:43;;;;;;;0.50;0.50;;;;;;;;;;5051284;27;88947;-50
2023/05/09 13:56:11;;;;;;;0.93;0.80;;;;;;;;;;5063855;27;87044;-50
2023/05/09 13:58:39;;;;;;;0.53;0.53;;;;;;;;;;5056002;27;86162;-50
2023/05/09 14:01:10;;;;;;;0.70;0.70;;;;;;;;;;5063656;27;87990;-50
2023/05/09 14:03:38;;;;;;;0.80;0.73;;;;;;;;;;5057882;27;89040;-50
2023/05/09 14:06:08;;;;;;;0.70;0.70;;;;;;;;;;5061587;27;88231;-50
2023/05/09 14:08:36;;;;;;;1.17;0.80;;;;;;;;;;5062223;27;87153;-50
2023/05/09 14:11:06;;;;;;;0.80;0.80;;;;;;;;;;5060736;27;89198;-50
2023/05/09 14:13:34;;;;;;;4.70;1.80;;;;;;;;;;5062297;27;87820;-50
2023/05/09 14:16:03;;;;;;;2.83;1.37;;;;;;;;;;5060871;27;87048;-50
2023/05/09 14:18:34;;;;;;;6.47;3.23;;;;;;;;;;5060735;27;88904;-50
2023/05/09 14:21:02;;;;;;;7.30;6.53;;;;;;;;;;5058583;27;89186;-50
2023/05/09 14:23:30;;;;;;;9.57;4.20;;;;;;;;;;5059069;27;86467;-50
2023/05/09 14:25:58;;;;;;;3.80;2.70;;;;;;;;;;5058037;27;87105;-50
2023/05/09 14:28:27;;;;;;;5.67;2.33;;;;;;;;;;5062859;27;87070;-50
2023/05/09 14:30:56;;;;;;;3.93;2.20;;;;;;;;;;5062374;27;89915;-50
2023/05/09 14:33:24;;;;;;;2.73;1.90;;;;;;;;;;5061956;27;89826;-51
2023/05/09 14:35:54;;;;;;;4.43;2.20;;;;;;;;;;5062586;27;87550;-50
2023/05/09 14:38:22;;;;;;;2.33;1.97;;;;;;;;;;5061558;27;87227;-51
2023/05/09 14:40:50;;;;;;;4.63;2.10;;;;;;;;;;5062220;27;88148;-50
2023/05/09 14:43:20;;;;;;;2.30;2.10;;;;;;;;;;5060770;27;87795;-51
2023/05/09 14:45:48;;;;;;;3.70;2.00;;;;;;;;;;5060300;27;88369;-50
2023/05/09 14:48:16;;;;;;;2.73;2.47;;;;;;;;;;5062062;27;86330;-50
2023/05/09 14:50:45;;;;;;;1.73;1.43;;;;;;;;;;5061460;27;89095;-50
2023/05/09 14:53:15;;;;;;;2.23;1.60;;;;;;;;;;5060674;27;88763;-50